Talmage, KS (67482)

4:08 AM CDT on October 21, 2014 (GMT -0500)
Solomon Schools | Change Station
CLOSE
Current Station
Personal Weather Station
Location: Solomon, KS
Elevation: 1237 ft
Nearby Weather Stations

Elev 1237 ft 38.92 °N, 97.37 °W | Updated 20 seconds ago

Clear
Clear
49.0 °F
Feels Like 49 °F
N
0.0
Wind Variable Wind from NE
Gusts 2.0 mph

Today
High -- | Low -- °F
--% Chance of Precip.
Yesterday
High -- | Low -- °F
Precip. -- in
7:44 AM 6:42 PM
Waning Crescent, 6% visible
Pressure 30.06 in
Visibility 10.0 miles
Clouds Clear
Windchill 49 °F
Dew Point 44 °F
Humidity 82%
Rainfall 0.00 in
Snow Depth Not available.
UV 2.2 out of 12
Pollen 3.00 out of 12
Air Quality Not available.
Flu Activity No Activity
METAR KSLN 210853Z AUTO 00000KT 10SM CLR 09/07 A3008 RMK AO2 SLP180 T00890067 50004

More Conditions Fewer Conditions

Pressure 30.06 in
Visibility 10.0 miles
Clouds Clear
Windchill 49 °F
Dew Point 44 °F
Humidity 82%
Rainfall 0.00 in
Snow Depth Not available.
UV 2.2 out of 12
Pollen 3.00 out of 12
Air Quality Not available.
Flu Activity No Activity
METAR KSLN 210853Z AUTO 00000KT 10SM CLR 09/07 A3008 RMK AO2 SLP180 T00890067 50004

More Conditions Fewer Conditions

10-Day Weather Forecast

Almanac

Astronomy

Oct. 21, 2014 Rise Set
Actual Time 7:44 AM CDT 6:42 PM CDT
Civil Twilight 7:17 AM CDT 7:09 PM CDT
Nautical Twilight 6:46 AM CDT 7:40 PM CDT
Astronomical Twilight 6:15 AM CDT 8:11 PM CDT
Moon 5:31 AM CDT 5:36 PM CDT
Length of Visible Light 11h 51m
Length of Day
10h 57m
Tomorrow will be 2m 23s shorter.
Waning Crescent, 6% of the Moon is Illuminated
Today
Waning Crescent
Oct 23
New
Oct 30
First Quarter
Nov 6
Full
Nov 14
Last Quarter

Today's Extremes

State Highs State Lows

Community

WunderPhotos

Upload Photos

1,763,619 photos uploaded!

Nearby

Snow Depth

Station Depth Elevation
No new snow has been reported.

Earthquake Activity

City Distance Mag. Time & Date
Anthony, Kansas 138 miles 2.6 6:30 PM CDT
2014-10-20
Anthony, Kansas 139 miles 2.6 4:33 PM CDT
2014-10-20
Anthony, Kansas 140 miles 3.1 9:25 AM CDT
2014-10-20
Minimum magnitude displayed is 2.5.

Coastal Water Temperatures

Place Temperature
No Stations Reporting

Nearby Weather Stations